sensor_id;sensor_type;location;lat;lon;timestamp;temperature;humidity
51982;DHT22;37998;53.416;6.730;2022-10-24T00:02:07;14.20;99.90
51982;DHT22;37998;53.416;6.730;2022-10-24T00:04:37;14.20;99.90
51982;DHT22;37998;53.416;6.730;2022-10-24T00:07:05;14.30;99.90
51982;DHT22;37998;53.416;6.730;2022-10-24T00:09:32;14.20;99.90
51982;DHT22;37998;53.416;6.730;2022-10-24T00:11:58;14.30;99.90
51982;DHT22;37998;53.416;6.730;2022-10-24T00:14:24;14.30;99.90
51982;DHT22;37998;53.416;6.730;2022-10-24T00:16:50;14.30;99.90
51982;DHT22;37998;53.416;6.730;2022-10-24T00:19:16;14.30;99.90
51982;DHT22;37998;53.416;6.730;2022-10-24T00:21:42;14.20;99.90
51982;DHT22;37998;53.416;6.730;2022-10-24T00:24:08;14.40;99.90
51982;DHT22;37998;53.416;6.730;2022-10-24T00:26:34;14.40;99.90
51982;DHT22;37998;53.416;6.730;2022-10-24T00:29:00;14.40;99.90
51982;DHT22;37998;53.416;6.730;2022-10-24T00:31:26;14.40;99.90
51982;DHT22;37998;53.416;6.730;2022-10-24T00:33:52;14.40;99.90
51982;DHT22;37998;53.416;6.730;2022-10-24T00:36:21;14.40;99.90
51982;DHT22;37998;53.416;6.730;2022-10-24T00:38:47;14.40;99.90
51982;DHT22;37998;53.416;6.730;2022-10-24T00:41:15;14.40;99.90
51982;DHT22;37998;53.416;6.730;2022-10-24T00:43:41;14.50;99.90
51982;DHT22;37998;53.416;6.730;2022-10-24T00:46:07;14.40;99.90
51982;DHT22;37998;53.416;6.730;2022-10-24T00:48:41;14.40;99.90
51982;DHT22;37998;53.416;6.730;2022-10-24T00:51:28;14.40;99.90
51982;DHT22;37998;53.416;6.730;2022-10-24T00:54:05;14.40;99.90
51982;DHT22;37998;53.416;6.730;2022-10-24T00:56:40;14.40;99.90
51982;DHT22;37998;53.416;6.730;2022-10-24T00:59:09;14.40;99.90
51982;DHT22;37998;53.416;6.730;2022-10-24T01:01:36;14.30;99.90
51982;DHT22;37998;53.416;6.730;2022-10-24T01:04:03;14.30;99.90
51982;DHT22;37998;53.416;6.730;2022-10-24T01:06:43;14.30;99.90
51982;DHT22;37998;53.416;6.730;2022-10-24T01:09:37;14.30;99.90
51982;DHT22;37998;53.416;6.730;2022-10-24T01:12:22;14.30;99.90
51982;DHT22;37998;53.416;6.730;2022-10-24T01:15:02;14.30;99.90
51982;DHT22;37998;53.416;6.730;2022-10-24T01:17:38;14.30;99.90
51982;DHT22;37998;53.416;6.730;2022-10-24T01:20:15;14.20;99.90
51982;DHT22;37998;53.416;6.730;2022-10-24T01:31:09;14.20;99.90
51982;DHT22;37998;53.416;6.730;2022-10-24T01:33:56;14.20;99.90
51982;DHT22;37998;53.416;6.730;2022-10-24T01:39:08;14.20;99.90
51982;DHT22;37998;53.416;6.730;2022-10-24T01:41:35;14.20;99.90
51982;DHT22;37998;53.416;6.730;2022-10-24T01:44:10;14.20;99.90
51982;DHT22;37998;53.416;6.730;2022-10-24T01:46:41;14.20;99.90
51982;DHT22;37998;53.416;6.730;2022-10-24T01:49:14;14.20;99.90
51982;DHT22;37998;53.416;6.730;2022-10-24T01:51:41;14.20;99.90
51982;DHT22;37998;53.416;6.730;2022-10-24T01:54:08;13.80;99.90
51982;DHT22;37998;53.416;6.730;2022-10-24T01:56:35;14.20;99.90
51982;DHT22;37998;53.416;6.730;2022-10-24T01:59:38;14.20;99.90
51982;DHT22;37998;53.416;6.730;2022-10-24T02:04:23;14.30;99.90
51982;DHT22;37998;53.416;6.730;2022-10-24T02:06:50;14.20;99.90
51982;DHT22;37998;53.416;6.730;2022-10-24T02:09:18;14.20;99.90
51982;DHT22;37998;53.416;6.730;2022-10-24T02:11:46;14.30;99.90
51982;DHT22;37998;53.416;6.730;2022-10-24T02:14:20;14.30;99.90
51982;DHT22;37998;53.416;6.730;2022-10-24T02:16:48;14.30;99.90
51982;DHT22;37998;53.416;6.730;2022-10-24T02:19:14;14.30;99.90
51982;DHT22;37998;53.416;6.730;2022-10-24T02:21:56;14.30;99.90
51982;DHT22;37998;53.416;6.730;2022-10-24T02:24:32;14.40;99.90
51982;DHT22;37998;53.416;6.730;2022-10-24T02:27:10;14.40;99.90
51982;DHT22;37998;53.416;6.730;2022-10-24T02:29:58;14.40;99.90
51982;DHT22;37998;53.416;6.730;2022-10-24T02:32:32;14.40;99.90
51982;DHT22;37998;53.416;6.730;2022-10-24T02:34:59;14.40;99.90
51982;DHT22;37998;53.416;6.730;2022-10-24T02:37:28;14.40;99.90
51982;DHT22;37998;53.416;6.730;2022-10-24T02:39:56;14.50;99.90
51982;DHT22;37998;53.416;6.730;2022-10-24T02:42:24;14.50;99.90
51982;DHT22;37998;53.416;6.730;2022-10-24T02:44:52;14.50;99.90
51982;DHT22;37998;53.416;6.730;2022-10-24T02:47:21;14.50;99.90
51982;DHT22;37998;53.416;6.730;2022-10-24T02:49:48;14.50;99.90
51982;DHT22;37998;53.416;6.730;2022-10-24T02:52:14;14.50;99.90
51982;DHT22;37998;53.416;6.730;2022-10-24T02:54:40;14.50;99.90
51982;DHT22;37998;53.416;6.730;2022-10-24T02:57:06;14.50;99.90
51982;DHT22;37998;53.416;6.730;2022-10-24T02:59:31;14.60;99.90
51982;DHT22;37998;53.416;6.730;2022-10-24T03:01:57;14.70;99.90
51982;DHT22;37998;53.416;6.730;2022-10-24T03:04:23;14.70;99.90
51982;DHT22;37998;53.416;6.730;2022-10-24T03:06:49;14.70;99.90
51982;DHT22;37998;53.416;6.730;2022-10-24T03:09:14;14.60;99.90
51982;DHT22;37998;53.416;6.730;2022-10-24T03:11:40;14.70;99.90
51982;DHT22;37998;53.416;6.730;2022-10-24T03:14:06;14.70;99.90
51982;DHT22;37998;53.416;6.730;2022-10-24T03:16:31;14.70;99.90
51982;DHT22;37998;53.416;6.730;2022-10-24T03:18:57;14.70;99.90
51982;DHT22;37998;53.416;6.730;2022-10-24T03:21:23;14.70;99.90
51982;DHT22;37998;53.416;6.730;2022-10-24T03:23:49;14.70;99.90
51982;DHT22;37998;53.416;6.730;2022-10-24T03:26:14;14.70;99.90
51982;DHT22;37998;53.416;6.730;2022-10-24T03:28:40;14.70;99.90
51982;DHT22;37998;53.416;6.730;2022-10-24T03:31:06;14.70;99.90
51982;DHT22;37998;53.416;6.730;2022-10-24T03:33:32;14.70;99.90
51982;DHT22;37998;53.416;6.730;2022-10-24T03:35:58;14.70;99.90
51982;DHT22;37998;53.416;6.730;2022-10-24T03:38:24;14.70;99.90
51982;DHT22;37998;53.416;6.730;2022-10-24T03:40:50;14.70;99.90
51982;DHT22;37998;53.416;6.730;2022-10-24T03:43:16;14.80;99.90
51982;DHT22;37998;53.416;6.730;2022-10-24T03:45:42;15.00;99.90
51982;DHT22;37998;53.416;6.730;2022-10-24T03:48:08;14.90;99.90
51982;DHT22;37998;53.416;6.730;2022-10-24T03:50:33;14.90;99.90
51982;DHT22;37998;53.416;6.730;2022-10-24T03:52:59;14.90;99.90
51982;DHT22;37998;53.416;6.730;2022-10-24T03:55:26;14.90;99.90
51982;DHT22;37998;53.416;6.730;2022-10-24T03:57:52;15.00;99.90
51982;DHT22;37998;53.416;6.730;2022-10-24T04:00:18;14.90;99.90
51982;DHT22;37998;53.416;6.730;2022-10-24T04:02:44;15.00;99.90
51982;DHT22;37998;53.416;6.730;2022-10-24T04:05:10;15.00;99.90
51982;DHT22;37998;53.416;6.730;2022-10-24T04:07:36;15.00;99.90
51982;DHT22;37998;53.416;6.730;2022-10-24T04:10:02;15.00;99.90
51982;DHT22;37998;53.416;6.730;2022-10-24T04:12:28;15.10;99.90
51982;DHT22;37998;53.416;6.730;2022-10-24T04:14:57;15.10;99.90
51982;DHT22;37998;53.416;6.730;2022-10-24T04:17:22;15.10;99.90
51982;DHT22;37998;53.416;6.730;2022-10-24T04:19:48;15.10;99.90
51982;DHT22;37998;53.416;6.730;2022-10-24T04:22:14;15.10;99.90
51982;DHT22;37998;53.416;6.730;2022-10-24T04:24:39;15.10;99.90
51982;DHT22;37998;53.416;6.730;2022-10-24T04:27:06;15.10;99.90
51982;DHT22;37998;53.416;6.730;2022-10-24T04:29:32;15.10;99.90
51982;DHT22;37998;53.416;6.730;2022-10-24T04:31:58;15.10;99.90
51982;DHT22;37998;53.416;6.730;2022-10-24T04:34:23;15.10;99.90
51982;DHT22;37998;53.416;6.730;2022-10-24T04:36:49;15.00;99.90
51982;DHT22;37998;53.416;6.730;2022-10-24T04:39:15;15.00;99.90
51982;DHT22;37998;53.416;6.730;2022-10-24T04:41:40;15.10;99.90
51982;DHT22;37998;53.416;6.730;2022-10-24T04:44:06;15.10;99.90
51982;DHT22;37998;53.416;6.730;2022-10-24T04:46:32;15.00;99.90
51982;DHT22;37998;53.416;6.730;2022-10-24T04:48:57;14.90;99.90
51982;DHT22;37998;53.416;6.730;2022-10-24T04:51:23;15.00;99.90
51982;DHT22;37998;53.416;6.730;2022-10-24T04:53:49;14.90;99.90
51982;DHT22;37998;53.416;6.730;2022-10-24T04:56:15;14.90;99.90
51982;DHT22;37998;53.416;6.730;2022-10-24T04:58:41;14.90;99.90
51982;DHT22;37998;53.416;6.730;2022-10-24T05:01:07;14.80;99.90
51982;DHT22;37998;53.416;6.730;2022-10-24T05:03:32;14.80;99.90
51982;DHT22;37998;53.416;6.730;2022-10-24T05:05:58;14.70;99.90
51982;DHT22;37998;53.416;6.730;2022-10-24T05:08:24;14.70;99.90
51982;DHT22;37998;53.416;6.730;2022-10-24T05:10:49;14.70;99.90
51982;DHT22;37998;53.416;6.730;2022-10-24T05:13:15;14.70;99.90
51982;DHT22;37998;53.416;6.730;2022-10-24T05:15:42;14.60;99.90
51982;DHT22;37998;53.416;6.730;2022-10-24T05:18:08;14.60;99.90
51982;DHT22;37998;53.416;6.730;2022-10-24T05:20:33;14.60;99.90
51982;DHT22;37998;53.416;6.730;2022-10-24T05:22:59;14.60;99.90
51982;DHT22;37998;53.416;6.730;2022-10-24T05:25:25;14.60;99.90
51982;DHT22;37998;53.416;6.730;2022-10-24T05:27:50;14.60;99.90
51982;DHT22;37998;53.416;6.730;2022-10-24T05:30:16;14.50;99.90
51982;DHT22;37998;53.416;6.730;2022-10-24T05:32:42;14.50;99.90
51982;DHT22;37998;53.416;6.730;2022-10-24T05:35:08;14.50;99.90
51982;DHT22;37998;53.416;6.730;2022-10-24T05:37:34;14.50;99.90
51982;DHT22;37998;53.416;6.730;2022-10-24T05:40:00;14.50;99.90
51982;DHT22;37998;53.416;6.730;2022-10-24T05:42:25;14.30;99.90
51982;DHT22;37998;53.416;6.730;2022-10-24T05:44:51;14.40;99.90
51982;DHT22;37998;53.416;6.730;2022-10-24T05:47:17;14.30;99.90
51982;DHT22;37998;53.416;6.730;2022-10-24T05:49:42;14.30;99.90
51982;DHT22;37998;53.416;6.730;2022-10-24T05:52:08;14.30;99.90
51982;DHT22;37998;53.416;6.730;2022-10-24T05:54:34;14.30;99.90
51982;DHT22;37998;53.416;6.730;2022-10-24T05:56:59;14.30;99.90
51982;DHT22;37998;53.416;6.730;2022-10-24T05:59:25;14.20;99.90
51982;DHT22;37998;53.416;6.730;2022-10-24T06:01:51;14.20;99.90
51982;DHT22;37998;53.416;6.730;2022-10-24T06:04:16;14.20;99.90
51982;DHT22;37998;53.416;6.730;2022-10-24T06:06:43;14.20;99.90
51982;DHT22;37998;53.416;6.730;2022-10-24T06:09:10;14.20;99.90
51982;DHT22;37998;53.416;6.730;2022-10-24T06:11:35;14.20;99.90
51982;DHT22;37998;53.416;6.730;2022-10-24T06:14:02;14.20;99.90
51982;DHT22;37998;53.416;6.730;2022-10-24T06:16:27;14.20;99.90
51982;DHT22;37998;53.416;6.730;2022-10-24T06:18:55;14.20;99.90
51982;DHT22;37998;53.416;6.730;2022-10-24T06:21:21;14.20;99.90
51982;DHT22;37998;53.416;6.730;2022-10-24T06:23:47;14.30;99.90
51982;DHT22;37998;53.416;6.730;2022-10-24T06:26:13;14.30;99.90
51982;DHT22;37998;53.416;6.730;2022-10-24T06:28:40;14.40;99.90
51982;DHT22;37998;53.416;6.730;2022-10-24T06:31:06;14.40;99.90
51982;DHT22;37998;53.416;6.730;2022-10-24T06:33:32;14.40;99.90
51982;DHT22;37998;53.416;6.730;2022-10-24T06:36:00;14.50;99.90
51982;DHT22;37998;53.416;6.730;2022-10-24T06:38:26;14.50;99.90
51982;DHT22;37998;53.416;6.730;2022-10-24T06:40:52;14.50;99.90
51982;DHT22;37998;53.416;6.730;2022-10-24T06:43:18;14.60;99.90
51982;DHT22;37998;53.416;6.730;2022-10-24T06:45:44;14.60;99.90
51982;DHT22;37998;53.416;6.730;2022-10-24T06:48:10;14.60;99.90
51982;DHT22;37998;53.416;6.730;2022-10-24T06:50:37;14.60;99.90
51982;DHT22;37998;53.416;6.730;2022-10-24T06:53:07;14.70;99.90
51982;DHT22;37998;53.416;6.730;2022-10-24T06:55:33;14.70;99.90
51982;DHT22;37998;53.416;6.730;2022-10-24T06:57:59;14.70;99.90
51982;DHT22;37998;53.416;6.730;2022-10-24T07:00:25;14.70;99.90
51982;DHT22;37998;53.416;6.730;2022-10-24T07:02:51;14.70;99.90
51982;DHT22;37998;53.416;6.730;2022-10-24T07:05:16;14.70;99.90
51982;DHT22;37998;53.416;6.730;2022-10-24T07:07:42;14.80;99.90
51982;DHT22;37998;53.416;6.730;2022-10-24T07:10:11;14.80;99.90
51982;DHT22;37998;53.416;6.730;2022-10-24T07:12:38;14.80;99.90
51982;DHT22;37998;53.416;6.730;2022-10-24T07:15:04;14.80;99.90
51982;DHT22;37998;53.416;6.730;2022-10-24T07:17:29;14.80;99.90
51982;DHT22;37998;53.416;6.730;2022-10-24T07:19:55;14.90;99.90
51982;DHT22;37998;53.416;6.730;2022-10-24T07:22:22;14.90;99.90
51982;DHT22;37998;53.416;6.730;2022-10-24T07:24:54;14.90;99.90
51982;DHT22;37998;53.416;6.730;2022-10-24T07:27:21;15.00;99.90
51982;DHT22;37998;53.416;6.730;2022-10-24T07:29:47;15.00;99.90
51982;DHT22;37998;53.416;6.730;2022-10-24T07:32:13;15.00;99.90
51982;DHT22;37998;53.416;6.730;2022-10-24T07:34:39;15.10;99.90
51982;DHT22;37998;53.416;6.730;2022-10-24T07:37:05;15.10;99.90
51982;DHT22;37998;53.416;6.730;2022-10-24T07:39:30;15.40;99.90
51982;DHT22;37998;53.416;6.730;2022-10-24T07:41:56;15.50;99.90
51982;DHT22;37998;53.416;6.730;2022-10-24T07:44:22;15.70;99.90
51982;DHT22;37998;53.416;6.730;2022-10-24T07:46:47;17.00;99.90
51982;DHT22;37998;53.416;6.730;2022-10-24T07:49:13;15.60;99.90
51982;DHT22;37998;53.416;6.730;2022-10-24T07:51:40;15.50;99.90
51982;DHT22;37998;53.416;6.730;2022-10-24T07:54:07;15.50;99.90
51982;DHT22;37998;53.416;6.730;2022-10-24T07:56:32;15.50;99.90
51982;DHT22;37998;53.416;6.730;2022-10-24T07:58:59;15.50;99.90
51982;DHT22;37998;53.416;6.730;2022-10-24T08:01:27;15.50;99.90
51982;DHT22;37998;53.416;6.730;2022-10-24T08:03:53;15.50;99.90
51982;DHT22;37998;53.416;6.730;2022-10-24T08:06:21;15.60;99.90
51982;DHT22;37998;53.416;6.730;2022-10-24T08:08:47;15.70;99.90
51982;DHT22;37998;53.416;6.730;2022-10-24T08:11:18;15.80;99.90
51982;DHT22;37998;53.416;6.730;2022-10-24T08:13:46;15.80;99.90
51982;DHT22;37998;53.416;6.730;2022-10-24T08:16:14;15.80;99.90
51982;DHT22;37998;53.416;6.730;2022-10-24T08:18:41;15.90;99.90
51982;DHT22;37998;53.416;6.730;2022-10-24T08:21:12;15.90;99.90
51982;DHT22;37998;53.416;6.730;2022-10-24T08:23:40;16.00;99.90
51982;DHT22;37998;53.416;6.730;2022-10-24T08:26:07;16.00;99.90
51982;DHT22;37998;53.416;6.730;2022-10-24T08:28:33;16.10;99.90
51982;DHT22;37998;53.416;6.730;2022-10-24T08:31:01;16.20;99.90
51982;DHT22;37998;53.416;6.730;2022-10-24T08:33:28;16.20;99.90
51982;DHT22;37998;53.416;6.730;2022-10-24T08:35:57;16.30;99.90
51982;DHT22;37998;53.416;6.730;2022-10-24T08:38:23;16.40;99.90
51982;DHT22;37998;53.416;6.730;2022-10-24T08:40:49;16.40;99.90
51982;DHT22;37998;53.416;6.730;2022-10-24T08:43:16;16.40;99.90
51982;DHT22;37998;53.416;6.730;2022-10-24T08:45:57;16.40;99.90
51982;DHT22;37998;53.416;6.730;2022-10-24T08:48:55;16.40;99.90
51982;DHT22;37998;53.416;6.730;2022-10-24T08:51:47;16.50;99.90
51982;DHT22;37998;53.416;6.730;2022-10-24T08:54:22;16.50;99.90
51982;DHT22;37998;53.416;6.730;2022-10-24T08:56:51;16.60;99.90
51982;DHT22;37998;53.416;6.730;2022-10-24T08:59:19;16.50;99.90
51982;DHT22;37998;53.416;6.730;2022-10-24T09:01:51;16.40;99.90
51982;DHT22;37998;53.416;6.730;2022-10-24T09:04:23;16.50;99.90
51982;DHT22;37998;53.416;6.730;2022-10-24T09:06:51;16.50;99.90
51982;DHT22;37998;53.416;6.730;2022-10-24T09:09:32;16.50;99.90
51982;DHT22;37998;53.416;6.730;2022-10-24T09:12:03;16.60;99.90
51982;DHT22;37998;53.416;6.730;2022-10-24T09:14:36;16.70;99.90
51982;DHT22;37998;53.416;6.730;2022-10-24T09:17:29;16.70;99.90
51982;DHT22;37998;53.416;6.730;2022-10-24T09:20:21;16.80;99.90
51982;DHT22;37998;53.416;6.730;2022-10-24T09:22:48;16.80;99.90
51982;DHT22;37998;53.416;6.730;2022-10-24T09:25:16;16.70;99.90
51982;DHT22;37998;53.416;6.730;2022-10-24T09:27:43;16.70;99.90
51982;DHT22;37998;53.416;6.730;2022-10-24T09:30:17;16.60;99.90
51982;DHT22;37998;53.416;6.730;2022-10-24T09:32:44;16.60;99.90
51982;DHT22;37998;53.416;6.730;2022-10-24T09:35:22;16.50;99.90
51982;DHT22;37998;53.416;6.730;2022-10-24T09:37:53;16.50;99.90
51982;DHT22;37998;53.416;6.730;2022-10-24T09:40:26;16.60;99.90
51982;DHT22;37998;53.416;6.730;2022-10-24T09:45:39;16.80;99.90
51982;DHT22;37998;53.416;6.730;2022-10-24T09:48:16;16.80;99.90
51982;DHT22;37998;53.416;6.730;2022-10-24T09:50:44;16.80;99.90
51982;DHT22;37998;53.416;6.730;2022-10-24T09:53:37;16.80;99.90
51982;DHT22;37998;53.416;6.730;2022-10-24T09:56:12;17.00;99.90
51982;DHT22;37998;53.416;6.730;2022-10-24T09:58:39;17.00;99.90
51982;DHT22;37998;53.416;6.730;2022-10-24T10:01:26;17.20;99.90
51982;DHT22;37998;53.416;6.730;2022-10-24T10:04:02;17.10;99.90
51982;DHT22;37998;53.416;6.730;2022-10-24T10:06:30;17.10;99.90
51982;DHT22;37998;53.416;6.730;2022-10-24T10:08:57;17.10;99.90
51982;DHT22;37998;53.416;6.730;2022-10-24T10:13:54;17.10;99.90
51982;DHT22;37998;53.416;6.730;2022-10-24T10:16:35;17.10;99.90
51982;DHT22;37998;53.416;6.730;2022-10-24T10:19:18;17.00;99.90
51982;DHT22;37998;53.416;6.730;2022-10-24T10:22:00;17.00;99.90
51982;DHT22;37998;53.416;6.730;2022-10-24T10:24:39;16.90;99.90
51982;DHT22;37998;53.416;6.730;2022-10-24T10:27:24;16.90;99.90
51982;DHT22;37998;53.416;6.730;2022-10-24T10:36:34;16.80;99.90
51982;DHT22;37998;53.416;6.730;2022-10-24T10:39:08;16.80;99.90
51982;DHT22;37998;53.416;6.730;2022-10-24T10:49:45;16.50;99.90
51982;DHT22;37998;53.416;6.730;2022-10-24T10:52:31;16.60;99.90
51982;DHT22;37998;53.416;6.730;2022-10-24T11:00:23;16.90;99.90
51982;DHT22;37998;53.416;6.730;2022-10-24T11:03:07;17.00;99.90
51982;DHT22;37998;53.416;6.730;2022-10-24T11:11:27;16.70;99.90
51982;DHT22;37998;53.416;6.730;2022-10-24T11:16:39;16.80;99.90
51982;DHT22;37998;53.416;6.730;2022-10-24T11:22:20;16.90;99.90
51982;DHT22;37998;53.416;6.730;2022-10-24T11:27:46;17.00;99.90
51982;DHT22;37998;53.416;6.730;2022-10-24T11:30:15;17.00;99.90
51982;DHT22;37998;53.416;6.730;2022-10-24T11:32:55;17.00;99.90
51982;DHT22;37998;53.416;6.730;2022-10-24T11:35:31;17.00;99.90
51982;DHT22;37998;53.416;6.730;2022-10-24T11:38:19;17.10;99.90
51982;DHT22;37998;53.416;6.730;2022-10-24T11:40:49;17.20;99.90
51982;DHT22;37998;53.416;6.730;2022-10-24T11:43:23;17.20;99.90
51982;DHT22;37998;53.416;6.730;2022-10-24T11:46:24;17.20;99.90
51982;DHT22;37998;53.416;6.730;2022-10-24T11:51:23;17.00;99.90
51982;DHT22;37998;53.416;6.730;2022-10-24T11:54:12;17.10;99.90
51982;DHT22;37998;53.416;6.730;2022-10-24T11:56:45;17.20;99.90
51982;DHT22;37998;53.416;6.730;2022-10-24T11:59:15;17.20;99.90
51982;DHT22;37998;53.416;6.730;2022-10-24T12:04:45;17.20;99.90
51982;DHT22;37998;53.416;6.730;2022-10-24T12:15:57;17.10;99.90
51982;DHT22;37998;53.416;6.730;2022-10-24T12:18:33;17.20;99.90
51982;DHT22;37998;53.416;6.730;2022-10-24T12:21:05;17.30;99.90
51982;DHT22;37998;53.416;6.730;2022-10-24T12:23:32;17.20;99.90
51982;DHT22;37998;53.416;6.730;2022-10-24T12:26:19;17.30;99.90
51982;DHT22;37998;53.416;6.730;2022-10-24T12:31:33;17.30;99.90
51982;DHT22;37998;53.416;6.730;2022-10-24T12:37:09;17.20;99.90
51982;DHT22;37998;53.416;6.730;2022-10-24T12:47:38;17.00;99.90
51982;DHT22;37998;53.416;6.730;2022-10-24T12:53:14;16.80;99.90
51982;DHT22;37998;53.416;6.730;2022-10-24T12:58:27;16.70;99.90
51982;DHT22;37998;53.416;6.730;2022-10-24T13:03:41;16.30;99.90
51982;DHT22;37998;53.416;6.730;2022-10-24T13:06:24;16.00;99.90
51982;DHT22;37998;53.416;6.730;2022-10-24T13:09:10;15.80;99.90
51982;DHT22;37998;53.416;6.730;2022-10-24T13:11:53;15.60;99.90
51982;DHT22;37998;53.416;6.730;2022-10-24T13:14:42;15.40;99.90
51982;DHT22;37998;53.416;6.730;2022-10-24T13:17:34;15.30;99.90
51982;DHT22;37998;53.416;6.730;2022-10-24T13:22:45;15.10;99.90
51982;DHT22;37998;53.416;6.730;2022-10-24T13:25:30;15.10;99.90
51982;DHT22;37998;53.416;6.730;2022-10-24T13:30:48;15.10;99.90
51982;DHT22;37998;53.416;6.730;2022-10-24T13:38:55;15.10;99.90
51982;DHT22;37998;53.416;6.730;2022-10-24T13:41:38;15.10;99.90
51982;DHT22;37998;53.416;6.730;2022-10-24T13:54:43;14.70;99.90
51982;DHT22;37998;53.416;6.730;2022-10-24T13:57:30;14.70;99.90
51982;DHT22;37998;53.416;6.730;2022-10-24T14:00:06;14.80;99.90
51982;DHT22;37998;53.416;6.730;2022-10-24T14:02:38;14.80;99.90
51982;DHT22;37998;53.416;6.730;2022-10-24T14:05:06;14.90;99.90
51982;DHT22;37998;53.416;6.730;2022-10-24T14:07:32;14.90;99.90
51982;DHT22;37998;53.416;6.730;2022-10-24T14:10:10;15.00;99.90
51982;DHT22;37998;53.416;6.730;2022-10-24T14:12:38;15.10;99.90
51982;DHT22;37998;53.416;6.730;2022-10-24T14:15:17;15.20;99.90
51982;DHT22;37998;53.416;6.730;2022-10-24T14:18:02;15.30;99.90
51982;DHT22;37998;53.416;6.730;2022-10-24T14:20:34;15.30;99.90
51982;DHT22;37998;53.416;6.730;2022-10-24T14:23:00;15.30;99.90
51982;DHT22;37998;53.416;6.730;2022-10-24T14:25:33;15.20;99.90
51982;DHT22;37998;53.416;6.730;2022-10-24T14:28:16;15.20;99.90
51982;DHT22;37998;53.416;6.730;2022-10-24T14:30:53;15.20;99.90
51982;DHT22;37998;53.416;6.730;2022-10-24T14:33:25;15.10;99.90
51982;DHT22;37998;53.416;6.730;2022-10-24T14:35:52;15.00;99.90
51982;DHT22;37998;53.416;6.730;2022-10-24T14:38:19;14.90;99.90
51982;DHT22;37998;53.416;6.730;2022-10-24T14:40:45;14.90;99.90
51982;DHT22;37998;53.416;6.730;2022-10-24T14:43:25;14.70;99.90
51982;DHT22;37998;53.416;6.730;2022-10-24T14:46:05;14.80;99.90
51982;DHT22;37998;53.416;6.730;2022-10-24T14:48:31;14.80;99.90
51982;DHT22;37998;53.416;6.730;2022-10-24T14:51:05;14.60;99.90
51982;DHT22;37998;53.416;6.730;2022-10-24T14:53:34;14.60;99.90
51982;DHT22;37998;53.416;6.730;2022-10-24T14:56:01;14.50;99.90
51982;DHT22;37998;53.416;6.730;2022-10-24T14:58:31;14.50;99.90
51982;DHT22;37998;53.416;6.730;2022-10-24T15:00:59;14.50;99.90
51982;DHT22;37998;53.416;6.730;2022-10-24T15:03:27;14.50;99.90
51982;DHT22;37998;53.416;6.730;2022-10-24T15:08:34;14.40;99.90
51982;DHT22;37998;53.416;6.730;2022-10-24T15:13:32;14.30;99.90
51982;DHT22;37998;53.416;6.730;2022-10-24T15:15:59;14.30;99.90
51982;DHT22;37998;53.416;6.730;2022-10-24T15:18:27;14.20;99.90
51982;DHT22;37998;53.416;6.730;2022-10-24T15:20:59;14.20;99.90
51982;DHT22;37998;53.416;6.730;2022-10-24T15:23:28;14.30;99.90
51982;DHT22;37998;53.416;6.730;2022-10-24T15:26:01;14.20;99.90
51982;DHT22;37998;53.416;6.730;2022-10-24T15:28:46;14.20;99.90
51982;DHT22;37998;53.416;6.730;2022-10-24T15:31:14;14.10;99.90
51982;DHT22;37998;53.416;6.730;2022-10-24T15:33:41;14.20;99.90
51982;DHT22;37998;53.416;6.730;2022-10-24T15:38:48;14.20;99.90
51982;DHT22;37998;53.416;6.730;2022-10-24T15:41:17;14.20;99.90
51982;DHT22;37998;53.416;6.730;2022-10-24T15:43:42;14.10;99.90
51982;DHT22;37998;53.416;6.730;2022-10-24T15:46:08;14.10;99.90
51982;DHT22;37998;53.416;6.730;2022-10-24T15:48:34;14.20;99.90
51982;DHT22;37998;53.416;6.730;2022-10-24T15:50:59;14.10;99.90
51982;DHT22;37998;53.416;6.730;2022-10-24T15:53:25;14.10;99.90
51982;DHT22;37998;53.416;6.730;2022-10-24T15:55:50;14.10;99.90
51982;DHT22;37998;53.416;6.730;2022-10-24T15:58:16;14.10;99.90
51982;DHT22;37998;53.416;6.730;2022-10-24T16:00:43;14.10;99.90
51982;DHT22;37998;53.416;6.730;2022-10-24T16:03:18;14.10;99.90
51982;DHT22;37998;53.416;6.730;2022-10-24T16:05:47;14.10;99.90
51982;DHT22;37998;53.416;6.730;2022-10-24T16:08:16;14.10;99.90
51982;DHT22;37998;53.416;6.730;2022-10-24T16:10:46;14.10;99.90
51982;DHT22;37998;53.416;6.730;2022-10-24T16:13:13;14.10;99.90
51982;DHT22;37998;53.416;6.730;2022-10-24T16:15:40;14.10;99.90
51982;DHT22;37998;53.416;6.730;2022-10-24T16:18:06;14.10;99.90
51982;DHT22;37998;53.416;6.730;2022-10-24T16:20:32;14.10;99.90
51982;DHT22;37998;53.416;6.730;2022-10-24T16:22:58;14.10;99.90
51982;DHT22;37998;53.416;6.730;2022-10-24T16:25:27;14.10;99.90
51982;DHT22;37998;53.416;6.730;2022-10-24T16:27:53;14.10;99.90
51982;DHT22;37998;53.416;6.730;2022-10-24T16:30:23;14.00;99.90
51982;DHT22;37998;53.416;6.730;2022-10-24T16:32:50;15.20;99.90
51982;DHT22;37998;53.416;6.730;2022-10-24T16:35:21;14.10;99.90
51982;DHT22;37998;53.416;6.730;2022-10-24T16:37:49;14.00;99.90
51982;DHT22;37998;53.416;6.730;2022-10-24T16:40:15;14.00;99.90
51982;DHT22;37998;53.416;6.730;2022-10-24T16:42:41;14.00;99.90
51982;DHT22;37998;53.416;6.730;2022-10-24T16:45:07;14.00;99.90
51982;DHT22;37998;53.416;6.730;2022-10-24T16:47:33;13.90;99.90
51982;DHT22;37998;53.416;6.730;2022-10-24T16:49:59;13.90;99.90
51982;DHT22;37998;53.416;6.730;2022-10-24T16:52:26;13.90;99.90
51982;DHT22;37998;53.416;6.730;2022-10-24T16:54:52;13.90;99.90
51982;DHT22;37998;53.416;6.730;2022-10-24T16:57:22;13.90;99.90
51982;DHT22;37998;53.416;6.730;2022-10-24T16:59:49;13.90;99.90
51982;DHT22;37998;53.416;6.730;2022-10-24T17:02:16;13.90;99.90
51982;DHT22;37998;53.416;6.730;2022-10-24T17:04:42;13.90;99.90
51982;DHT22;37998;53.416;6.730;2022-10-24T17:07:12;13.80;99.90
51982;DHT22;37998;53.416;6.730;2022-10-24T17:09:38;13.80;99.90
51982;DHT22;37998;53.416;6.730;2022-10-24T17:12:04;13.80;99.90
51982;DHT22;37998;53.416;6.730;2022-10-24T17:14:32;13.80;99.90
51982;DHT22;37998;53.416;6.730;2022-10-24T17:16:58;13.80;99.90
51982;DHT22;37998;53.416;6.730;2022-10-24T17:19:24;13.80;99.90
51982;DHT22;37998;53.416;6.730;2022-10-24T17:21:50;13.80;99.90
51982;DHT22;37998;53.416;6.730;2022-10-24T17:24:19;13.80;99.90
51982;DHT22;37998;53.416;6.730;2022-10-24T17:26:46;13.80;99.90
51982;DHT22;37998;53.416;6.730;2022-10-24T17:29:26;13.80;99.90
51982;DHT22;37998;53.416;6.730;2022-10-24T17:31:53;13.80;99.90
51982;DHT22;37998;53.416;6.730;2022-10-24T17:34:22;13.80;99.90
51982;DHT22;37998;53.416;6.730;2022-10-24T17:37:14;13.80;99.90
51982;DHT22;37998;53.416;6.730;2022-10-24T17:40:05;13.80;99.90
51982;DHT22;37998;53.416;6.730;2022-10-24T17:42:36;13.80;99.90
51982;DHT22;37998;53.416;6.730;2022-10-24T17:45:02;13.70;99.90
51982;DHT22;37998;53.416;6.730;2022-10-24T17:47:28;13.70;99.90